KEPH/EPH METAR and TAF weather

Enter ICAO airport designator
Station Type Date Time Source
KEPH METAR 2020/01/29 02:53 UTC NOAA

KEPH 290253Z AUTO 31003KT 10SM CLR 01/00 A3013 RMK AO2 SLP214 T00110000 53024


Station Type Date Time Source
KEPH Decoded METAR 2020/01/29 02:53 UTC NOAA

EPHRATA MUNICIPAL AIRPORT, WA, United States (KEPH) 47-18N 119-31W 383M
Jan 28, 2020 - 09:53 PM EST / 2020.01.29 0253 UTC
Wind: from the NW (310 degrees) at 3 MPH (3 KT):0
Visibility: 10 mile(s):0
Sky conditions: clear
Temperature: 34.0 F (1.1 C)
Dew Point: 32.0 F (0.0 C)
Relative Humidity: 92%
Pressure (altimeter): 30.13 in. Hg (1020 hPa)
Pressure tendency: 0.07 inches (2.4 hPa) higher than three hours ago
ob: KEPH 290253Z AUTO 31003KT 10SM CLR 01/00 A3013 RMK AO2 SLP214 T00110000 53024
cycle: 3

Station Type Date Time Source
KEPH TAF UTC NOAA

Error!

Example: see airport list